sensor_id;sensor_type;location;lat;lon;timestamp;temperature;humidity
814;DHT22;389;48.710;9.392;2023-04-16T00:00:32;9.20;99.90
814;DHT22;389;48.710;9.392;2023-04-16T00:02:58;9.20;99.90
814;DHT22;389;48.710;9.392;2023-04-16T00:05:23;9.20;99.90
814;DHT22;389;48.710;9.392;2023-04-16T00:07:49;9.20;99.90
814;DHT22;389;48.710;9.392;2023-04-16T00:10:16;9.20;99.90
814;DHT22;389;48.710;9.392;2023-04-16T00:12:41;9.20;99.90
814;DHT22;389;48.710;9.392;2023-04-16T00:15:07;9.20;99.90
814;DHT22;389;48.710;9.392;2023-04-16T00:17:33;9.20;99.90
814;DHT22;389;48.710;9.392;2023-04-16T00:19:59;9.20;99.90
814;DHT22;389;48.710;9.392;2023-04-16T00:22:24;9.20;99.90
814;DHT22;389;48.710;9.392;2023-04-16T00:24:50;9.20;99.90
814;DHT22;389;48.710;9.392;2023-04-16T00:27:15;9.20;99.90
814;DHT22;389;48.710;9.392;2023-04-16T00:29:41;9.20;99.90
814;DHT22;389;48.710;9.392;2023-04-16T00:32:06;9.20;99.90
814;DHT22;389;48.710;9.392;2023-04-16T00:34:32;9.20;99.90
814;DHT22;389;48.710;9.392;2023-04-16T00:36:58;9.20;99.90
814;DHT22;389;48.710;9.392;2023-04-16T00:39:24;9.20;99.90
814;DHT22;389;48.710;9.392;2023-04-16T00:41:49;9.10;99.90
814;DHT22;389;48.710;9.392;2023-04-16T00:44:15;9.10;99.90
814;DHT22;389;48.710;9.392;2023-04-16T00:46:41;9.20;99.90
814;DHT22;389;48.710;9.392;2023-04-16T00:49:07;9.20;99.90
814;DHT22;389;48.710;9.392;2023-04-16T00:51:34;9.10;99.90
814;DHT22;389;48.710;9.392;2023-04-16T00:54:00;9.10;99.90
814;DHT22;389;48.710;9.392;2023-04-16T00:56:27;9.10;99.90
814;DHT22;389;48.710;9.392;2023-04-16T00:58:55;9.10;99.90
814;DHT22;389;48.710;9.392;2023-04-16T01:01:21;9.10;99.90
814;DHT22;389;48.710;9.392;2023-04-16T01:03:48;9.10;99.90
814;DHT22;389;48.710;9.392;2023-04-16T01:06:16;9.10;99.90
814;DHT22;389;48.710;9.392;2023-04-16T01:08:42;9.10;99.90
814;DHT22;389;48.710;9.392;2023-04-16T01:11:09;9.20;99.90
814;DHT22;389;48.710;9.392;2023-04-16T01:13:35;9.10;99.90
814;DHT22;389;48.710;9.392;2023-04-16T01:16:09;9.10;99.90
814;DHT22;389;48.710;9.392;2023-04-16T01:18:35;9.10;99.90
814;DHT22;389;48.710;9.392;2023-04-16T01:21:01;9.10;99.90
814;DHT22;389;48.710;9.392;2023-04-16T01:23:26;9.10;99.90
814;DHT22;389;48.710;9.392;2023-04-16T01:25:52;9.10;99.90
814;DHT22;389;48.710;9.392;2023-04-16T01:28:18;9.10;99.90
814;DHT22;389;48.710;9.392;2023-04-16T01:30:43;9.10;99.90
814;DHT22;389;48.710;9.392;2023-04-16T01:33:13;9.30;99.90
814;DHT22;389;48.710;9.392;2023-04-16T01:35:39;9.10;99.90
814;DHT22;389;48.710;9.392;2023-04-16T01:38:08;9.10;99.90
814;DHT22;389;48.710;9.392;2023-04-16T01:40:34;9.10;99.90
814;DHT22;389;48.710;9.392;2023-04-16T01:43:00;9.10;99.90
814;DHT22;389;48.710;9.392;2023-04-16T01:45:25;9.10;99.90
814;DHT22;389;48.710;9.392;2023-04-16T01:47:51;9.20;99.90
814;DHT22;389;48.710;9.392;2023-04-16T01:50:18;9.10;99.90
814;DHT22;389;48.710;9.392;2023-04-16T01:52:45;9.10;99.90
814;DHT22;389;48.710;9.392;2023-04-16T01:55:11;9.10;99.90
814;DHT22;389;48.710;9.392;2023-04-16T01:57:37;9.10;99.90
814;DHT22;389;48.710;9.392;2023-04-16T02:00:03;9.10;99.90
814;DHT22;389;48.710;9.392;2023-04-16T02:02:29;9.10;99.90
814;DHT22;389;48.710;9.392;2023-04-16T02:04:56;9.10;99.90
814;DHT22;389;48.710;9.392;2023-04-16T02:07:22;9.10;99.90
814;DHT22;389;48.710;9.392;2023-04-16T02:09:48;9.10;99.90
814;DHT22;389;48.710;9.392;2023-04-16T02:12:15;9.10;99.90
814;DHT22;389;48.710;9.392;2023-04-16T02:14:40;9.10;99.90
814;DHT22;389;48.710;9.392;2023-04-16T02:17:06;9.10;99.90
814;DHT22;389;48.710;9.392;2023-04-16T02:19:32;9.10;99.90
814;DHT22;389;48.710;9.392;2023-04-16T02:21:57;9.10;99.90
814;DHT22;389;48.710;9.392;2023-04-16T02:24:23;9.10;99.90
814;DHT22;389;48.710;9.392;2023-04-16T02:26:48;9.10;99.90
814;DHT22;389;48.710;9.392;2023-04-16T02:29:14;9.20;99.90
814;DHT22;389;48.710;9.392;2023-04-16T02:31:40;9.20;99.90
814;DHT22;389;48.710;9.392;2023-04-16T02:34:06;9.20;99.90
814;DHT22;389;48.710;9.392;2023-04-16T02:36:32;9.10;99.90
814;DHT22;389;48.710;9.392;2023-04-16T02:38:58;9.10;99.90
814;DHT22;389;48.710;9.392;2023-04-16T02:41:24;9.10;99.90
814;DHT22;389;48.710;9.392;2023-04-16T02:43:49;9.10;99.90
814;DHT22;389;48.710;9.392;2023-04-16T02:46:15;9.10;99.90
814;DHT22;389;48.710;9.392;2023-04-16T02:48:41;9.10;99.90
814;DHT22;389;48.710;9.392;2023-04-16T02:51:06;9.10;99.90
814;DHT22;389;48.710;9.392;2023-04-16T02:53:32;9.10;99.90
814;DHT22;389;48.710;9.392;2023-04-16T02:55:57;9.10;99.90
814;DHT22;389;48.710;9.392;2023-04-16T02:58:24;9.10;99.90
814;DHT22;389;48.710;9.392;2023-04-16T03:00:51;9.10;99.90
814;DHT22;389;48.710;9.392;2023-04-16T03:03:17;9.10;99.90
814;DHT22;389;48.710;9.392;2023-04-16T03:05:42;9.20;99.90
814;DHT22;389;48.710;9.392;2023-04-16T03:08:09;9.10;99.90
814;DHT22;389;48.710;9.392;2023-04-16T03:10:35;9.10;99.90
814;DHT22;389;48.710;9.392;2023-04-16T03:13:01;9.20;99.90
814;DHT22;389;48.710;9.392;2023-04-16T03:15:27;9.10;99.90
814;DHT22;389;48.710;9.392;2023-04-16T03:17:53;9.10;99.90
814;DHT22;389;48.710;9.392;2023-04-16T03:20:19;9.10;99.90
814;DHT22;389;48.710;9.392;2023-04-16T03:22:48;9.10;99.90
814;DHT22;389;48.710;9.392;2023-04-16T03:25:14;9.10;99.90
814;DHT22;389;48.710;9.392;2023-04-16T03:27:40;9.10;99.90
814;DHT22;389;48.710;9.392;2023-04-16T03:30:07;9.10;99.90
814;DHT22;389;48.710;9.392;2023-04-16T03:32:33;9.10;99.90
814;DHT22;389;48.710;9.392;2023-04-16T03:34:59;9.10;99.90
814;DHT22;389;48.710;9.392;2023-04-16T03:37:25;9.10;99.90
814;DHT22;389;48.710;9.392;2023-04-16T03:39:50;9.10;99.90
814;DHT22;389;48.710;9.392;2023-04-16T03:42:16;9.10;99.90
814;DHT22;389;48.710;9.392;2023-04-16T03:44:41;9.10;99.90
814;DHT22;389;48.710;9.392;2023-04-16T03:47:07;9.10;99.90
814;DHT22;389;48.710;9.392;2023-04-16T03:49:33;9.10;99.90
814;DHT22;389;48.710;9.392;2023-04-16T03:51:58;9.10;99.90
814;DHT22;389;48.710;9.392;2023-04-16T03:54:25;9.10;99.90
814;DHT22;389;48.710;9.392;2023-04-16T03:56:51;9.10;99.90
814;DHT22;389;48.710;9.392;2023-04-16T03:59:17;9.10;99.90
814;DHT22;389;48.710;9.392;2023-04-16T04:01:42;9.10;99.90
814;DHT22;389;48.710;9.392;2023-04-16T04:04:08;9.10;99.90
814;DHT22;389;48.710;9.392;2023-04-16T04:06:34;9.10;99.90
814;DHT22;389;48.710;9.392;2023-04-16T04:09:00;9.10;99.90
814;DHT22;389;48.710;9.392;2023-04-16T04:11:25;9.10;99.90
814;DHT22;389;48.710;9.392;2023-04-16T04:13:51;9.10;99.90
814;DHT22;389;48.710;9.392;2023-04-16T04:16:16;9.10;99.90
814;DHT22;389;48.710;9.392;2023-04-16T04:18:42;9.10;99.90
814;DHT22;389;48.710;9.392;2023-04-16T04:21:08;9.10;99.90
814;DHT22;389;48.710;9.392;2023-04-16T04:23:34;9.10;99.90
814;DHT22;389;48.710;9.392;2023-04-16T04:26:00;9.10;99.90
814;DHT22;389;48.710;9.392;2023-04-16T04:28:31;9.00;99.90
814;DHT22;389;48.710;9.392;2023-04-16T04:30:58;9.00;99.90
814;DHT22;389;48.710;9.392;2023-04-16T04:33:24;9.00;99.90
814;DHT22;389;48.710;9.392;2023-04-16T04:35:50;9.00;99.90
814;DHT22;389;48.710;9.392;2023-04-16T04:38:16;9.00;99.90
814;DHT22;389;48.710;9.392;2023-04-16T04:40:44;9.00;99.90
814;DHT22;389;48.710;9.392;2023-04-16T04:43:10;9.00;99.90
814;DHT22;389;48.710;9.392;2023-04-16T04:45:36;9.00;99.90
814;DHT22;389;48.710;9.392;2023-04-16T04:48:02;9.00;99.90
814;DHT22;389;48.710;9.392;2023-04-16T04:50:27;9.00;99.90
814;DHT22;389;48.710;9.392;2023-04-16T04:52:53;9.00;99.90
814;DHT22;389;48.710;9.392;2023-04-16T04:55:18;9.00;99.90
814;DHT22;389;48.710;9.392;2023-04-16T04:57:44;9.00;99.90
814;DHT22;389;48.710;9.392;2023-04-16T05:00:10;9.00;99.90
814;DHT22;389;48.710;9.392;2023-04-16T05:02:35;9.00;99.90
814;DHT22;389;48.710;9.392;2023-04-16T05:05:01;9.00;99.90
814;DHT22;389;48.710;9.392;2023-04-16T05:07:27;9.00;99.90
814;DHT22;389;48.710;9.392;2023-04-16T05:09:52;9.00;99.90
814;DHT22;389;48.710;9.392;2023-04-16T05:12:18;9.00;99.90
814;DHT22;389;48.710;9.392;2023-04-16T05:14:43;9.00;99.90
814;DHT22;389;48.710;9.392;2023-04-16T05:17:09;9.00;99.90
814;DHT22;389;48.710;9.392;2023-04-16T05:19:35;9.00;99.90
814;DHT22;389;48.710;9.392;2023-04-16T05:22:01;9.00;99.90
814;DHT22;389;48.710;9.392;2023-04-16T05:24:27;9.00;99.90
814;DHT22;389;48.710;9.392;2023-04-16T05:26:52;9.00;99.90
814;DHT22;389;48.710;9.392;2023-04-16T05:29:18;9.00;99.90
814;DHT22;389;48.710;9.392;2023-04-16T05:31:44;9.00;99.90
814;DHT22;389;48.710;9.392;2023-04-16T05:34:09;9.00;99.90
814;DHT22;389;48.710;9.392;2023-04-16T05:36:35;9.00;99.90
814;DHT22;389;48.710;9.392;2023-04-16T05:39:01;9.00;99.90
814;DHT22;389;48.710;9.392;2023-04-16T05:41:27;9.10;99.90
814;DHT22;389;48.710;9.392;2023-04-16T05:43:53;9.00;99.90
814;DHT22;389;48.710;9.392;2023-04-16T05:46:18;9.10;99.90
814;DHT22;389;48.710;9.392;2023-04-16T05:48:44;9.00;99.90
814;DHT22;389;48.710;9.392;2023-04-16T05:51:09;9.00;99.90
814;DHT22;389;48.710;9.392;2023-04-16T05:53:35;9.00;99.90
814;DHT22;389;48.710;9.392;2023-04-16T05:56:00;8.90;99.90
814;DHT22;389;48.710;9.392;2023-04-16T05:58:26;9.10;99.90
814;DHT22;389;48.710;9.392;2023-04-16T06:00:51;9.10;99.90
814;DHT22;389;48.710;9.392;2023-04-16T06:03:17;9.10;99.90
814;DHT22;389;48.710;9.392;2023-04-16T06:05:43;9.10;99.90
814;DHT22;389;48.710;9.392;2023-04-16T06:08:09;9.20;99.90
814;DHT22;389;48.710;9.392;2023-04-16T06:10:34;9.20;99.90
814;DHT22;389;48.710;9.392;2023-04-16T06:13:00;9.20;99.90
814;DHT22;389;48.710;9.392;2023-04-16T06:15:25;9.30;99.90
814;DHT22;389;48.710;9.392;2023-04-16T06:17:51;9.30;99.90
814;DHT22;389;48.710;9.392;2023-04-16T06:20:16;9.30;99.90
814;DHT22;389;48.710;9.392;2023-04-16T06:22:42;9.30;99.90
814;DHT22;389;48.710;9.392;2023-04-16T06:25:08;9.30;99.90
814;DHT22;389;48.710;9.392;2023-04-16T06:27:34;9.30;99.90
814;DHT22;389;48.710;9.392;2023-04-16T06:29:59;9.30;99.90
814;DHT22;389;48.710;9.392;2023-04-16T06:32:25;9.30;99.90
814;DHT22;389;48.710;9.392;2023-04-16T06:34:51;9.30;99.90
814;DHT22;389;48.710;9.392;2023-04-16T06:37:16;9.30;99.90
814;DHT22;389;48.710;9.392;2023-04-16T06:39:42;9.30;99.90
814;DHT22;389;48.710;9.392;2023-04-16T06:42:07;9.30;99.90
814;DHT22;389;48.710;9.392;2023-04-16T06:44:34;9.30;99.90
814;DHT22;389;48.710;9.392;2023-04-16T06:47:00;9.30;99.90
814;DHT22;389;48.710;9.392;2023-04-16T06:49:25;9.40;99.90
814;DHT22;389;48.710;9.392;2023-04-16T06:51:51;9.30;99.90
814;DHT22;389;48.710;9.392;2023-04-16T06:54:16;9.30;99.90
814;DHT22;389;48.710;9.392;2023-04-16T06:56:43;9.40;99.90
814;DHT22;389;48.710;9.392;2023-04-16T06:59:08;9.40;99.90
814;DHT22;389;48.710;9.392;2023-04-16T07:01:34;9.40;99.90
814;DHT22;389;48.710;9.392;2023-04-16T07:04:00;9.40;99.90
814;DHT22;389;48.710;9.392;2023-04-16T07:06:26;9.40;99.90
814;DHT22;389;48.710;9.392;2023-04-16T07:08:52;9.40;99.90
814;DHT22;389;48.710;9.392;2023-04-16T07:11:17;9.40;99.90
814;DHT22;389;48.710;9.392;2023-04-16T07:13:43;9.40;99.90
814;DHT22;389;48.710;9.392;2023-04-16T07:16:09;9.40;99.90
814;DHT22;389;48.710;9.392;2023-04-16T07:18:34;9.40;99.90
814;DHT22;389;48.710;9.392;2023-04-16T07:21:00;9.40;99.90
814;DHT22;389;48.710;9.392;2023-04-16T07:23:26;9.60;99.90
814;DHT22;389;48.710;9.392;2023-04-16T07:25:52;9.50;99.90
814;DHT22;389;48.710;9.392;2023-04-16T07:28:17;9.50;99.90
814;DHT22;389;48.710;9.392;2023-04-16T07:30:43;9.40;99.90
814;DHT22;389;48.710;9.392;2023-04-16T07:33:09;9.40;99.90
814;DHT22;389;48.710;9.392;2023-04-16T07:35:34;9.40;99.90
814;DHT22;389;48.710;9.392;2023-04-16T07:38:00;9.50;99.90
814;DHT22;389;48.710;9.392;2023-04-16T07:40:26;9.40;99.90
814;DHT22;389;48.710;9.392;2023-04-16T07:42:51;9.50;99.90
814;DHT22;389;48.710;9.392;2023-04-16T07:45:17;9.50;99.90
814;DHT22;389;48.710;9.392;2023-04-16T07:47:43;9.50;99.90
814;DHT22;389;48.710;9.392;2023-04-16T07:50:11;9.60;99.90
814;DHT22;389;48.710;9.392;2023-04-16T07:52:37;9.50;99.90
814;DHT22;389;48.710;9.392;2023-04-16T07:55:07;9.50;99.90
814;DHT22;389;48.710;9.392;2023-04-16T07:57:33;9.50;99.90
814;DHT22;389;48.710;9.392;2023-04-16T07:59:58;9.50;99.90
814;DHT22;389;48.710;9.392;2023-04-16T08:02:26;9.50;99.90
814;DHT22;389;48.710;9.392;2023-04-16T08:04:51;9.50;99.90
814;DHT22;389;48.710;9.392;2023-04-16T08:07:17;9.50;99.90
814;DHT22;389;48.710;9.392;2023-04-16T08:09:47;9.60;99.90
814;DHT22;389;48.710;9.392;2023-04-16T08:12:14;9.60;99.90
814;DHT22;389;48.710;9.392;2023-04-16T08:14:40;9.60;99.90
814;DHT22;389;48.710;9.392;2023-04-16T08:17:06;9.60;99.90
814;DHT22;389;48.710;9.392;2023-04-16T08:19:31;9.60;99.90
814;DHT22;389;48.710;9.392;2023-04-16T08:21:57;9.60;99.90
814;DHT22;389;48.710;9.392;2023-04-16T08:24:23;9.70;99.90
814;DHT22;389;48.710;9.392;2023-04-16T08:26:48;9.70;99.90
814;DHT22;389;48.710;9.392;2023-04-16T08:29:14;9.70;99.90
814;DHT22;389;48.710;9.392;2023-04-16T08:31:40;9.70;99.90
814;DHT22;389;48.710;9.392;2023-04-16T08:34:06;9.80;99.90
814;DHT22;389;48.710;9.392;2023-04-16T08:36:31;9.80;99.90
814;DHT22;389;48.710;9.392;2023-04-16T08:38:57;9.70;99.90
814;DHT22;389;48.710;9.392;2023-04-16T08:41:23;9.80;99.90
814;DHT22;389;48.710;9.392;2023-04-16T08:43:49;9.80;99.90
814;DHT22;389;48.710;9.392;2023-04-16T08:46:16;9.80;99.90
814;DHT22;389;48.710;9.392;2023-04-16T08:48:48;9.90;99.90
814;DHT22;389;48.710;9.392;2023-04-16T08:51:18;9.90;99.90
814;DHT22;389;48.710;9.392;2023-04-16T08:53:52;9.90;99.90
814;DHT22;389;48.710;9.392;2023-04-16T08:56:20;9.90;99.90
814;DHT22;389;48.710;9.392;2023-04-16T08:58:47;10.00;99.90
814;DHT22;389;48.710;9.392;2023-04-16T09:01:15;10.00;99.90
814;DHT22;389;48.710;9.392;2023-04-16T09:03:44;10.10;99.90
814;DHT22;389;48.710;9.392;2023-04-16T09:06:11;10.10;99.90
814;DHT22;389;48.710;9.392;2023-04-16T09:08:36;10.10;99.90
814;DHT22;389;48.710;9.392;2023-04-16T09:11:03;10.20;99.90
814;DHT22;389;48.710;9.392;2023-04-16T09:13:30;10.20;99.90
814;DHT22;389;48.710;9.392;2023-04-16T09:15:56;10.20;99.90
814;DHT22;389;48.710;9.392;2023-04-16T09:18:23;10.20;99.90
814;DHT22;389;48.710;9.392;2023-04-16T09:20:50;10.30;99.90
814;DHT22;389;48.710;9.392;2023-04-16T09:23:16;10.30;99.90
814;DHT22;389;48.710;9.392;2023-04-16T09:25:42;10.30;99.90
814;DHT22;389;48.710;9.392;2023-04-16T09:28:11;10.40;99.90
814;DHT22;389;48.710;9.392;2023-04-16T09:30:36;10.50;99.90
814;DHT22;389;48.710;9.392;2023-04-16T09:33:17;10.50;99.90
814;DHT22;389;48.710;9.392;2023-04-16T09:35:51;10.50;99.90
814;DHT22;389;48.710;9.392;2023-04-16T09:38:17;10.50;99.90
814;DHT22;389;48.710;9.392;2023-04-16T09:40:43;10.50;99.90
814;DHT22;389;48.710;9.392;2023-04-16T09:43:14;10.60;99.90
814;DHT22;389;48.710;9.392;2023-04-16T09:45:58;10.60;99.90
814;DHT22;389;48.710;9.392;2023-04-16T09:48:31;10.60;99.90
814;DHT22;389;48.710;9.392;2023-04-16T09:51:04;10.50;99.90
814;DHT22;389;48.710;9.392;2023-04-16T09:53:31;10.50;99.90
814;DHT22;389;48.710;9.392;2023-04-16T09:56:05;10.50;99.90
814;DHT22;389;48.710;9.392;2023-04-16T09:58:34;10.60;99.90
814;DHT22;389;48.710;9.392;2023-04-16T10:01:01;10.60;99.90
814;DHT22;389;48.710;9.392;2023-04-16T10:03:32;10.60;99.90
814;DHT22;389;48.710;9.392;2023-04-16T10:06:15;10.60;99.90
814;DHT22;389;48.710;9.392;2023-04-16T10:08:54;10.60;99.90
814;DHT22;389;48.710;9.392;2023-04-16T10:11:23;10.60;99.90
814;DHT22;389;48.710;9.392;2023-04-16T10:13:49;10.70;99.90
814;DHT22;389;48.710;9.392;2023-04-16T10:16:16;10.70;99.90
814;DHT22;389;48.710;9.392;2023-04-16T10:18:46;10.80;99.90
814;DHT22;389;48.710;9.392;2023-04-16T10:21:12;10.80;99.90
814;DHT22;389;48.710;9.392;2023-04-16T10:23:40;10.90;99.90
814;DHT22;389;48.710;9.392;2023-04-16T10:26:07;10.80;99.90
814;DHT22;389;48.710;9.392;2023-04-16T10:28:39;10.80;99.90
814;DHT22;389;48.710;9.392;2023-04-16T10:31:10;10.70;99.90
814;DHT22;389;48.710;9.392;2023-04-16T10:33:57;10.90;99.90
814;DHT22;389;48.710;9.392;2023-04-16T10:36:27;10.90;99.90
814;DHT22;389;48.710;9.392;2023-04-16T10:38:58;10.90;99.90
814;DHT22;389;48.710;9.392;2023-04-16T10:41:28;10.90;99.90
814;DHT22;389;48.710;9.392;2023-04-16T10:44:04;11.00;99.90
814;DHT22;389;48.710;9.392;2023-04-16T10:46:45;11.00;99.90
814;DHT22;389;48.710;9.392;2023-04-16T10:49:18;10.90;99.90
814;DHT22;389;48.710;9.392;2023-04-16T10:51:57;10.80;99.90
814;DHT22;389;48.710;9.392;2023-04-16T10:54:25;10.80;99.90
814;DHT22;389;48.710;9.392;2023-04-16T10:56:53;10.70;99.90
814;DHT22;389;48.710;9.392;2023-04-16T10:59:21;10.70;99.90
814;DHT22;389;48.710;9.392;2023-04-16T11:01:58;10.70;99.90
814;DHT22;389;48.710;9.392;2023-04-16T11:04:28;10.80;99.90
814;DHT22;389;48.710;9.392;2023-04-16T11:12:33;10.80;99.90
814;DHT22;389;48.710;9.392;2023-04-16T11:15:08;10.70;99.90
814;DHT22;389;48.710;9.392;2023-04-16T11:17:38;10.80;99.90
814;DHT22;389;48.710;9.392;2023-04-16T11:20:29;10.80;99.90
814;DHT22;389;48.710;9.392;2023-04-16T11:22:56;10.80;99.90
814;DHT22;389;48.710;9.392;2023-04-16T11:25:30;10.70;99.90
814;DHT22;389;48.710;9.392;2023-04-16T11:27:58;10.80;99.90
814;DHT22;389;48.710;9.392;2023-04-16T11:30:31;10.80;99.90
814;DHT22;389;48.710;9.392;2023-04-16T11:33:08;10.80;99.90
814;DHT22;389;48.710;9.392;2023-04-16T11:35:37;10.80;99.90
814;DHT22;389;48.710;9.392;2023-04-16T11:38:08;10.80;99.90
814;DHT22;389;48.710;9.392;2023-04-16T11:40:44;10.80;99.90
814;DHT22;389;48.710;9.392;2023-04-16T12:30:14;11.10;99.90
814;DHT22;389;48.710;9.392;2023-04-16T12:32:46;11.00;99.90
814;DHT22;389;48.710;9.392;2023-04-16T12:35:12;11.10;99.90
814;DHT22;389;48.710;9.392;2023-04-16T12:37:47;11.10;99.90
814;DHT22;389;48.710;9.392;2023-04-16T12:40:16;11.10;99.90
814;DHT22;389;48.710;9.392;2023-04-16T12:42:42;11.10;99.90
814;DHT22;389;48.710;9.392;2023-04-16T12:45:08;11.10;99.90
814;DHT22;389;48.710;9.392;2023-04-16T12:47:33;11.10;99.90
814;DHT22;389;48.710;9.392;2023-04-16T12:49:59;11.30;99.90
814;DHT22;389;48.710;9.392;2023-04-16T12:52:25;11.20;99.90
814;DHT22;389;48.710;9.392;2023-04-16T12:54:51;11.20;99.90
814;DHT22;389;48.710;9.392;2023-04-16T12:57:17;11.30;99.90
814;DHT22;389;48.710;9.392;2023-04-16T12:59:43;11.30;99.90
814;DHT22;389;48.710;9.392;2023-04-16T13:02:10;11.40;99.90
814;DHT22;389;48.710;9.392;2023-04-16T13:04:36;11.50;99.90
814;DHT22;389;48.710;9.392;2023-04-16T13:07:06;11.50;99.90
814;DHT22;389;48.710;9.392;2023-04-16T13:09:32;11.40;99.90
814;DHT22;389;48.710;9.392;2023-04-16T13:11:57;11.40;99.90
814;DHT22;389;48.710;9.392;2023-04-16T13:14:23;11.40;99.90
814;DHT22;389;48.710;9.392;2023-04-16T13:16:48;11.40;99.90
814;DHT22;389;48.710;9.392;2023-04-16T13:19:14;11.40;99.90
814;DHT22;389;48.710;9.392;2023-04-16T13:21:41;11.40;99.90
814;DHT22;389;48.710;9.392;2023-04-16T13:24:06;11.60;99.90
814;DHT22;389;48.710;9.392;2023-04-16T13:26:32;11.60;99.90
814;DHT22;389;48.710;9.392;2023-04-16T13:28:58;11.50;99.90
814;DHT22;389;48.710;9.392;2023-04-16T13:31:24;11.40;99.90
814;DHT22;389;48.710;9.392;2023-04-16T13:33:50;11.40;99.90
814;DHT22;389;48.710;9.392;2023-04-16T13:36:15;11.40;99.90
814;DHT22;389;48.710;9.392;2023-04-16T13:38:41;11.30;99.90
814;DHT22;389;48.710;9.392;2023-04-16T13:41:06;11.30;99.90
814;DHT22;389;48.710;9.392;2023-04-16T13:43:32;11.20;99.90
814;DHT22;389;48.710;9.392;2023-04-16T13:45:58;11.20;99.90
814;DHT22;389;48.710;9.392;2023-04-16T13:48:25;11.40;99.90
814;DHT22;389;48.710;9.392;2023-04-16T13:50:51;11.20;99.90
814;DHT22;389;48.710;9.392;2023-04-16T13:53:17;11.40;99.90
814;DHT22;389;48.710;9.392;2023-04-16T13:55:43;11.30;99.90
814;DHT22;389;48.710;9.392;2023-04-16T13:58:08;11.30;99.90
814;DHT22;389;48.710;9.392;2023-04-16T14:00:36;11.30;99.90
814;DHT22;389;48.710;9.392;2023-04-16T14:03:01;11.20;99.90
814;DHT22;389;48.710;9.392;2023-04-16T14:05:27;11.30;99.90
814;DHT22;389;48.710;9.392;2023-04-16T14:07:55;11.20;99.90
814;DHT22;389;48.710;9.392;2023-04-16T14:10:21;11.20;99.90
814;DHT22;389;48.710;9.392;2023-04-16T14:12:47;11.30;99.90
814;DHT22;389;48.710;9.392;2023-04-16T14:15:13;11.20;99.90
814;DHT22;389;48.710;9.392;2023-04-16T14:17:40;11.30;99.90
814;DHT22;389;48.710;9.392;2023-04-16T14:20:09;11.30;99.90
814;DHT22;389;48.710;9.392;2023-04-16T14:22:35;11.20;99.90
814;DHT22;389;48.710;9.392;2023-04-16T14:25:00;11.20;99.90
814;DHT22;389;48.710;9.392;2023-04-16T14:27:27;11.30;99.90
814;DHT22;389;48.710;9.392;2023-04-16T14:29:53;11.20;99.90
814;DHT22;389;48.710;9.392;2023-04-16T14:32:19;11.20;99.90
814;DHT22;389;48.710;9.392;2023-04-16T14:34:44;11.20;99.90
814;DHT22;389;48.710;9.392;2023-04-16T14:37:11;11.10;99.90
814;DHT22;389;48.710;9.392;2023-04-16T14:39:37;11.10;99.90
814;DHT22;389;48.710;9.392;2023-04-16T14:42:04;11.20;99.90
814;DHT22;389;48.710;9.392;2023-04-16T14:44:32;11.10;99.90
814;DHT22;389;48.710;9.392;2023-04-16T14:46:58;11.10;99.90
814;DHT22;389;48.710;9.392;2023-04-16T14:49:24;11.10;99.90
814;DHT22;389;48.710;9.392;2023-04-16T14:51:50;11.00;99.90
814;DHT22;389;48.710;9.392;2023-04-16T14:54:19;11.00;99.90
814;DHT22;389;48.710;9.392;2023-04-16T14:56:45;11.00;99.90
814;DHT22;389;48.710;9.392;2023-04-16T14:59:12;11.00;99.90
814;DHT22;389;48.710;9.392;2023-04-16T15:01:41;11.10;99.90
814;DHT22;389;48.710;9.392;2023-04-16T15:04:07;11.10;99.90
814;DHT22;389;48.710;9.392;2023-04-16T15:06:33;11.10;99.90
814;DHT22;389;48.710;9.392;2023-04-16T15:09:00;11.10;99.90
814;DHT22;389;48.710;9.392;2023-04-16T15:11:26;11.10;99.90
814;DHT22;389;48.710;9.392;2023-04-16T15:13:53;11.10;99.90
814;DHT22;389;48.710;9.392;2023-04-16T15:16:19;11.20;99.90
814;DHT22;389;48.710;9.392;2023-04-16T15:18:44;11.30;99.90
814;DHT22;389;48.710;9.392;2023-04-16T15:21:13;11.20;99.90
814;DHT22;389;48.710;9.392;2023-04-16T15:23:49;11.10;99.90
814;DHT22;389;48.710;9.392;2023-04-16T15:26:14;11.10;99.90
814;DHT22;389;48.710;9.392;2023-04-16T15:28:41;11.20;99.90
814;DHT22;389;48.710;9.392;2023-04-16T15:31:07;11.10;99.90
814;DHT22;389;48.710;9.392;2023-04-16T15:33:33;11.10;99.90
814;DHT22;389;48.710;9.392;2023-04-16T15:35:58;11.10;99.90
814;DHT22;389;48.710;9.392;2023-04-16T15:38:24;11.20;99.90
814;DHT22;389;48.710;9.392;2023-04-16T15:40:49;11.20;99.90
814;DHT22;389;48.710;9.392;2023-04-16T15:43:15;11.30;99.90
814;DHT22;389;48.710;9.392;2023-04-16T15:45:41;11.20;99.90
814;DHT22;389;48.710;9.392;2023-04-16T15:48:06;11.20;99.90
814;DHT22;389;48.710;9.392;2023-04-16T15:50:32;11.10;99.90
814;DHT22;389;48.710;9.392;2023-04-16T15:52:58;11.10;99.90
814;DHT22;389;48.710;9.392;2023-04-16T15:55:23;11.10;99.90
814;DHT22;389;48.710;9.392;2023-04-16T15:57:50;11.10;99.90
814;DHT22;389;48.710;9.392;2023-04-16T16:00:16;11.10;99.90
814;DHT22;389;48.710;9.392;2023-04-16T16:02:44;11.00;99.90
814;DHT22;389;48.710;9.392;2023-04-16T16:05:14;11.00;99.90
814;DHT22;389;48.710;9.392;2023-04-16T16:07:41;11.00;99.90
814;DHT22;389;48.710;9.392;2023-04-16T16:10:08;11.00;99.90
814;DHT22;389;48.710;9.392;2023-04-16T16:12:34;11.00;99.90
814;DHT22;389;48.710;9.392;2023-04-16T16:15:00;11.00;99.90
814;DHT22;389;48.710;9.392;2023-04-16T16:17:27;11.00;99.90
814;DHT22;389;48.710;9.392;2023-04-16T16:19:53;11.00;99.90
814;DHT22;389;48.710;9.392;2023-04-16T16:22:20;11.00;99.90
814;DHT22;389;48.710;9.392;2023-04-16T16:24:48;10.90;99.90
814;DHT22;389;48.710;9.392;2023-04-16T16:27:15;11.10;99.90
814;DHT22;389;48.710;9.392;2023-04-16T16:29:41;10.90;99.90
814;DHT22;389;48.710;9.392;2023-04-16T16:32:07;10.90;99.90
814;DHT22;389;48.710;9.392;2023-04-16T16:34:32;10.90;99.90
814;DHT22;389;48.710;9.392;2023-04-16T16:36:58;10.90;99.90
814;DHT22;389;48.710;9.392;2023-04-16T16:39:23;10.90;99.90
814;DHT22;389;48.710;9.392;2023-04-16T16:41:50;10.90;99.90
814;DHT22;389;48.710;9.392;2023-04-16T16:44:20;11.00;99.90
814;DHT22;389;48.710;9.392;2023-04-16T16:46:46;10.80;99.90
814;DHT22;389;48.710;9.392;2023-04-16T16:49:13;10.80;99.90
814;DHT22;389;48.710;9.392;2023-04-16T16:51:47;10.80;99.90
814;DHT22;389;48.710;9.392;2023-04-16T16:54:13;10.80;99.90
814;DHT22;389;48.710;9.392;2023-04-16T16:56:40;11.00;99.90
814;DHT22;389;48.710;9.392;2023-04-16T16:59:05;10.80;99.90
814;DHT22;389;48.710;9.392;2023-04-16T17:01:32;10.90;99.90
814;DHT22;389;48.710;9.392;2023-04-16T17:03:57;10.80;99.90
814;DHT22;389;48.710;9.392;2023-04-16T17:06:23;10.90;99.90
814;DHT22;389;48.710;9.392;2023-04-16T17:08:50;10.80;99.90
814;DHT22;389;48.710;9.392;2023-04-16T17:11:16;10.70;99.90
814;DHT22;389;48.710;9.392;2023-04-16T17:13:42;10.70;99.90
814;DHT22;389;48.710;9.392;2023-04-16T17:16:09;10.70;99.90
814;DHT22;389;48.710;9.392;2023-04-16T17:18:34;10.70;99.90
814;DHT22;389;48.710;9.392;2023-04-16T17:21:00;10.70;99.90
814;DHT22;389;48.710;9.392;2023-04-16T17:23:26;10.70;99.90
814;DHT22;389;48.710;9.392;2023-04-16T17:25:52;10.70;99.90
814;DHT22;389;48.710;9.392;2023-04-16T17:28:17;10.70;99.90
814;DHT22;389;48.710;9.392;2023-04-16T17:30:49;10.70;99.90
814;DHT22;389;48.710;9.392;2023-04-16T17:33:15;10.70;99.90